Time;durP1;ratioP1;P1;durP2;ratioP2;P2;SDS_P1;SDS_P2;PMS_P1;PMS_P2;Temp;Humidity;BMP_temperature;BMP_pressure;BME280_temperature;BME280_humidity;BME280_pressure;Samples;Min_cycle;Max_cycle;Signal;HPM_P1;HPM_P2
2021/05/29 00:01:21;;;;;;;3.08;2.88;;;14.10;61.50;;;;;;5018518;28;20532;-67
2021/05/29 00:03:47;;;;;;;3.15;2.85;;;14.00;61.20;;;;;;5017436;28;20048;-67
2021/05/29 00:06:12;;;;;;;3.20;2.90;;;14.00;61.60;;;;;;5016012;28;20093;-67
2021/05/29 00:08:41;;;;;;;4.43;2.85;;;14.00;61.80;;;;;;5018241;28;20548;-67
2021/05/29 00:11:09;;;;;;;5.75;3.20;;;14.00;61.90;;;;;;5016908;28;20025;-68
2021/05/29 00:13:37;;;;;;;3.80;3.08;;;13.90;61.80;;;;;;5017684;28;20120;-66
2021/05/29 00:16:07;;;;;;;4.00;3.42;;;13.80;61.90;;;;;;5019269;28;20401;-65
2021/05/29 00:18:38;;;;;;;3.60;3.10;;;13.80;62.40;;;;;;5015332;28;20037;-65
2021/05/29 00:21:07;;;;;;;3.83;3.25;;;13.70;62.50;;;;;;5019950;28;20033;-65
2021/05/29 00:23:37;;;;;;;4.45;3.15;;;13.70;62.40;;;;;;5019441;28;20038;-66
2021/05/29 00:26:10;;;;;;;4.75;3.00;;;13.60;62.40;;;;;;5020130;28;20371;-65
2021/05/29 00:28:38;;;;;;;4.28;3.15;;;13.60;62.60;;;;;;5017363;28;20053;-65
2021/05/29 00:31:08;;;;;;;5.00;3.28;;;13.60;62.60;;;;;;5017163;28;20029;-65
2021/05/29 00:33:39;;;;;;;4.18;3.40;;;13.60;62.70;;;;;;5019140;28;20033;-66
2021/05/29 00:36:07;;;;;;;4.07;3.03;;;13.60;62.80;;;;;;5017498;28;20116;-65
2021/05/29 00:38:35;;;;;;;3.85;3.30;;;13.60;62.60;;;;;;5018193;28;20038;-65
2021/05/29 00:41:10;;;;;;;4.07;3.10;;;13.60;62.60;;;;;;5018854;28;20037;-64
2021/05/29 00:43:41;;;;;;;;;;;13.60;62.90;;;;;;5018446;28;20033;-64
2021/05/29 00:46:11;;;;;;;3.65;3.05;;;13.70;63.00;;;;;;5019114;28;19922;-65
2021/05/29 00:48:41;;;;;;;5.07;2.78;;;13.60;62.40;;;;;;5018358;28;20113;-65
2021/05/29 00:51:09;;;;;;;3.78;3.10;;;13.60;62.80;;;;;;5016416;28;20030;-65
2021/05/29 00:53:37;;;;;;;3.20;2.90;;;13.60;62.70;;;;;;5018421;28;20500;-64
2021/05/29 00:56:08;;;;;;;3.10;2.90;;;13.60;62.80;;;;;;5016763;28;20604;-64
2021/05/29 00:58:38;;;;;;;3.22;2.80;;;13.60;63.20;;;;;;5017859;28;20038;-65
2021/05/29 01:01:06;;;;;;;2.85;2.60;;;13.50;63.00;;;;;;5019004;28;20030;-65
2021/05/29 01:03:36;;;;;;;3.50;3.20;;;13.50;63.00;;;;;;5018137;28;20041;-65
2021/05/29 01:06:07;;;;;;;3.20;2.90;;;13.60;63.10;;;;;;5020815;28;20048;-65
2021/05/29 01:08:35;;;;;;;5.85;3.05;;;13.60;63.30;;;;;;5018267;28;20033;-65
2021/05/29 01:11:05;;;;;;;6.10;3.10;;;13.50;63.10;;;;;;5014670;28;20449;-65
2021/05/29 01:13:33;;;;;;;3.65;3.17;;;13.50;63.40;;;;;;5018663;28;20037;-65
2021/05/29 01:16:16;;;;;;;3.63;3.25;;;13.50;63.30;;;;;;5018699;28;20065;-65
2021/05/29 01:18:48;;;;;;;3.50;3.20;;;13.50;63.50;;;;;;5018381;28;20072;-65
2021/05/29 01:21:18;;;;;;;7.03;3.63;;;13.50;63.60;;;;;;5022347;28;20034;-64
2021/05/29 01:23:48;;;;;;;3.70;3.40;;;13.50;63.70;;;;;;5018559;28;20116;-66
2021/05/29 01:26:14;;;;;;;4.47;3.20;;;13.50;64.00;;;;;;5015399;28;20062;-65
2021/05/29 01:28:42;;;;;;;3.90;3.20;;;13.40;64.00;;;;;;5018937;28;20058;-65
2021/05/29 01:31:09;;;;;;;4.03;3.60;;;13.40;64.10;;;;;;5015309;28;20088;-65
2021/05/29 01:33:38;;;;;;;3.90;3.60;;;13.40;64.30;;;;;;5016460;28;20168;-65
2021/05/29 01:36:07;;;;;;;3.53;3.22;;;13.40;64.60;;;;;;5016938;28;20100;-66
2021/05/29 01:38:39;;;;;;;3.50;3.05;;;13.40;64.50;;;;;;5021640;28;20038;-65
2021/05/29 01:41:12;;;;;;;4.30;3.35;;;13.40;64.50;;;;;;5017251;28;20044;-65
2021/05/29 01:43:42;;;;;;;3.60;3.30;;;13.40;64.90;;;;;;5017335;28;20038;-65
2021/05/29 01:46:13;;;;;;;4.57;3.45;;;13.30;64.70;;;;;;5017953;28;20034;-66
2021/05/29 01:48:44;;;;;;;4.20;3.40;;;13.30;64.70;;;;;;5017746;28;20076;-65
2021/05/29 01:51:14;;;;;;;3.88;3.40;;;13.30;64.60;;;;;;5016657;28;20037;-65
2021/05/29 01:53:45;;;;;;;4.03;3.63;;;13.20;64.60;;;;;;5017324;28;20038;-66
2021/05/29 01:56:15;;;;;;;4.70;3.22;;;13.30;65.00;;;;;;5017535;28;20065;-66
2021/05/29 01:58:42;;;;;;;3.97;3.65;;;13.30;65.10;;;;;;5018099;28;20439;-65
2021/05/29 02:01:11;;;;;;;4.28;3.55;;;13.20;65.10;;;;;;5016580;28;20049;-64
2021/05/29 02:03:45;;;;;;;5.05;3.70;;;13.20;65.20;;;;;;5017710;28;20026;-66
2021/05/29 02:06:16;;;;;;;4.40;3.70;;;13.20;65.40;;;;;;5017481;28;20041;-65
2021/05/29 02:08:43;;;;;;;4.22;3.53;;;13.20;65.60;;;;;;5015435;28;20034;-65
2021/05/29 02:11:08;;;;;;;3.95;3.55;;;13.20;66.40;;;;;;5016287;28;20056;-65
2021/05/29 02:13:40;;;;;;;4.10;3.70;;;13.20;65.50;;;;;;5017179;28;20125;-65
2021/05/29 02:16:10;;;;;;;4.22;3.90;;;13.20;66.00;;;;;;5018074;28;20025;-65
2021/05/29 02:18:37;;;;;;;4.15;3.72;;;13.20;66.00;;;;;;5015852;28;20026;-65
2021/05/29 02:21:08;;;;;;;4.38;3.97;;;13.20;66.00;;;;;;5016663;28;20123;-65
2021/05/29 02:23:39;;;;;;;4.28;3.88;;;13.20;66.20;;;;;;5017400;28;20055;-65
2021/05/29 02:26:11;;;;;;;4.03;3.67;;;13.20;66.30;;;;;;5017940;28;20033;-65
2021/05/29 02:28:39;;;;;;;5.32;3.97;;;13.10;66.20;;;;;;5018196;28;20029;-64
2021/05/29 02:31:12;;;;;;;4.07;3.70;;;13.20;66.30;;;;;;5017152;28;20030;-65
2021/05/29 02:33:40;;;;;;;5.47;4.00;;;13.20;66.60;;;;;;5019649;28;20081;-66
2021/05/29 02:36:09;;;;;;;4.07;3.75;;;13.10;66.40;;;;;;5020369;28;20026;-65
2021/05/29 02:38:38;;;;;;;4.50;4.10;;;13.10;66.60;;;;;;5019612;28;20029;-64
2021/05/29 02:41:07;;;;;;;5.70;4.32;;;13.10;66.50;;;;;;5019794;28;20272;-66
2021/05/29 02:43:36;;;;;;;5.13;4.15;;;13.10;66.70;;;;;;5019890;28;20412;-66
2021/05/29 02:46:04;;;;;;;4.38;3.92;;;13.10;67.00;;;;;;5026170;28;20073;-65
2021/05/29 02:48:34;;;;;;;4.97;4.43;;;13.10;67.10;;;;;;5019728;28;20079;-66
2021/05/29 02:51:02;;;;;;;4.88;4.43;;;13.10;67.10;;;;;;5018565;28;20060;-65
2021/05/29 02:53:28;;;;;;;4.93;4.43;;;13.10;66.90;;;;;;5024529;28;20056;-65
2021/05/29 02:55:53;;;;;;;7.85;4.82;;;13.10;66.90;;;;;;5020280;28;20132;-65
2021/05/29 02:58:24;;;;;;;4.78;4.25;;;13.10;67.00;;;;;;5019212;28;20117;-65
2021/05/29 03:00:52;;;;;;;5.22;4.55;;;13.10;67.10;;;;;;5026518;28;20109;-65
2021/05/29 03:03:20;;;;;;;5.00;4.50;;;13.00;67.10;;;;;;5020232;28;20033;-65
2021/05/29 03:05:51;;;;;;;5.47;4.97;;;13.00;67.30;;;;;;5020197;28;20509;-66
2021/05/29 03:08:22;;;;;;;6.28;4.57;;;13.00;67.30;;;;;;5019828;28;20026;-65
2021/05/29 03:10:53;;;;;;;5.10;4.53;;;13.00;67.00;;;;;;5018314;28;20033;-64
2021/05/29 03:13:19;;;;;;;6.03;4.80;;;13.00;66.90;;;;;;5026206;28;20036;-65
2021/05/29 03:15:45;;;;;;;5.20;4.70;;;13.00;67.10;;;;;;5020082;28;20057;-64
2021/05/29 03:18:13;;;;;;;6.13;4.80;;;13.00;67.00;;;;;;5018207;28;20030;-64
2021/05/29 03:20:41;;;;;;;5.22;4.35;;;12.90;66.90;;;;;;5019485;28;20125;-65
2021/05/29 03:23:06;;;;;;;4.78;4.35;;;12.90;67.20;;;;;;5018823;28;20029;-65
2021/05/29 03:25:38;;;;;;;8.02;3.97;;;12.90;67.10;;;;;;5019580;28;20041;-65
2021/05/29 03:28:06;;;;;;;5.15;4.20;;;12.90;68.10;;;;;;5020923;28;20038;-65
2021/05/29 03:30:36;;;;;;;4.57;4.18;;;12.90;67.30;;;;;;5018600;28;20030;-65
2021/05/29 03:33:04;;;;;;;4.30;3.90;;;12.90;67.10;;;;;;5017782;28;20113;-66
2021/05/29 03:35:30;;;;;;;4.70;4.30;;;12.90;67.10;;;;;;5024310;28;20034;-64
2021/05/29 03:37:58;;;;;;;4.80;4.40;;;12.90;67.10;;;;;;5018837;28;20037;-65
2021/05/29 03:40:24;;;;;;;4.72;4.32;;;12.90;67.30;;;;;;5018301;28;20065;-66
2021/05/29 03:42:49;;;;;;;4.20;3.88;;;12.90;67.40;;;;;;5019441;28;20118;-66
2021/05/29 03:45:18;;;;;;;4.93;4.30;;;12.90;67.30;;;;;;5018576;28;20033;-64
2021/05/29 03:47:47;;;;;;;4.30;3.90;;;12.90;67.30;;;;;;5025742;28;20567;-65
2021/05/29 03:50:18;;;;;;;4.70;4.30;;;12.90;67.30;;;;;;5023615;28;20038;-64
2021/05/29 03:52:44;;;;;;;5.63;4.20;;;12.90;67.30;;;;;;5018970;28;20037;-65
2021/05/29 03:55:12;;;;;;;4.82;3.90;;;12.90;67.20;;;;;;5017677;28;20038;-64
2021/05/29 03:57:38;;;;;;;4.75;4.20;;;12.90;67.30;;;;;;5018780;28;20117;-65
2021/05/29 04:00:08;;;;;;;4.70;4.30;;;12.90;67.30;;;;;;5019406;28;21018;-65
2021/05/29 04:02:34;;;;;;;4.65;4.18;;;12.80;67.30;;;;;;5017589;28;20531;-65
2021/05/29 04:05:02;;;;;;;5.53;4.20;;;12.90;67.30;;;;;;5022795;28;20716;-66
2021/05/29 04:07:29;;;;;;;6.07;4.25;;;12.90;67.30;;;;;;5018309;28;20062;-65
2021/05/29 04:09:57;;;;;;;5.57;4.15;;;12.90;67.30;;;;;;5018453;28;20112;-65
2021/05/29 04:12:31;;;;;;;5.65;4.32;;;12.90;67.40;;;;;;5016915;28;20033;-64
2021/05/29 04:14:58;;;;;;;4.65;4.05;;;12.90;67.60;;;;;;5024955;28;20040;-66
2021/05/29 04:17:29;;;;;;;4.78;3.97;;;12.90;68.30;;;;;;5018931;28;20038;-65
2021/05/29 04:20:01;;;;;;;4.28;3.88;;;12.90;67.70;;;;;;5024945;28;20084;-65
2021/05/29 04:22:30;;;;;;;5.10;3.80;;;12.80;67.90;;;;;;5018297;28;20037;-65
2021/05/29 04:24:57;;;;;;;5.85;3.92;;;12.90;68.60;;;;;;5018545;28;20547;-65
2021/05/29 04:27:23;;;;;;;4.03;3.63;;;12.90;68.10;;;;;;5024303;28;20572;-66
2021/05/29 04:29:49;;;;;;;4.25;3.80;;;12.90;68.00;;;;;;5019339;28;20124;-65
2021/05/29 04:32:17;;;;;;;4.18;3.78;;;12.90;67.90;;;;;;5019488;28;20033;-65
2021/05/29 04:34:45;;;;;;;4.00;3.55;;;12.90;68.10;;;;;;5022550;28;20043;-65
2021/05/29 04:37:15;;;;;;;4.55;3.88;;;12.90;68.30;;;;;;5018007;28;20045;-64
2021/05/29 04:39:43;;;;;;;3.90;3.60;;;12.90;68.20;;;;;;5020181;28;20440;-65
2021/05/29 04:42:14;;;;;;;3.88;3.58;;;12.80;68.10;;;;;;5025000;28;20509;-66
2021/05/29 04:44:42;;;;;;;6.07;3.75;;;12.90;68.20;;;;;;5018484;28;20081;-64
2021/05/29 04:47:14;;;;;;;3.70;3.38;;;12.90;68.20;;;;;;5018278;28;20523;-65
2021/05/29 04:49:42;;;;;;;4.07;3.42;;;12.90;68.10;;;;;;5018104;28;20500;-64
2021/05/29 04:52:10;;;;;;;4.65;3.58;;;12.80;68.00;;;;;;5018156;28;20029;-65
2021/05/29 04:54:38;;;;;;;3.70;3.33;;;12.90;68.20;;;;;;5018459;28;20112;-65
2021/05/29 04:57:06;;;;;;;4.45;3.90;;;12.80;68.20;;;;;;5016640;28;20505;-65
2021/05/29 04:59:32;;;;;;;3.85;3.35;;;12.90;68.10;;;;;;5017683;28;20033;-65
2021/05/29 05:02:00;;;;;;;3.95;3.55;;;12.90;68.10;;;;;;5017489;28;20424;-65
2021/05/29 05:04:30;;;;;;;7.40;6.70;;;12.90;68.20;;;;;;5017204;28;20042;-66
2021/05/29 05:07:00;;;;;;;3.90;3.60;;;12.90;68.30;;;;;;5017011;28;20034;-64
2021/05/29 05:09:26;;;;;;;3.67;3.25;;;12.80;68.40;;;;;;5018052;28;20033;-65
2021/05/29 05:11:54;;;;;;;3.20;2.90;;;12.80;68.10;;;;;;5021881;28;20583;-65
2021/05/29 05:14:22;;;;;;;3.78;3.00;;;12.90;68.30;;;;;;5017544;28;20041;-65
2021/05/29 05:16:50;;;;;;;3.67;3.28;;;12.80;68.30;;;;;;5018297;28;20034;-65
2021/05/29 05:19:18;;;;;;;3.88;3.58;;;12.90;68.30;;;;;;5017229;28;20386;-65
2021/05/29 05:21:46;;;;;;;4.57;3.45;;;12.80;68.10;;;;;;5016854;28;20516;-66
2021/05/29 05:24:12;;;;;;;4.15;3.30;;;12.90;68.30;;;;;;5018354;28;20511;-65
2021/05/29 05:26:40;;;;;;;3.63;3.20;;;12.90;68.20;;;;;;5021905;28;20118;-68
2021/05/29 05:29:05;;;;;;;3.40;3.10;;;12.90;68.30;;;;;;5017903;28;20033;-67
2021/05/29 05:31:35;;;;;;;5.15;3.47;;;12.90;68.10;;;;;;5016199;28;20052;-64
2021/05/29 05:34:07;;;;;;;3.30;3.00;;;12.90;69.00;;;;;;5018692;28;20029;-65
2021/05/29 05:36:35;;;;;;;3.13;2.88;;;13.00;68.10;;;;;;5016013;28;20038;-63
2021/05/29 05:39:03;;;;;;;3.58;3.28;;;13.00;68.10;;;;;;5017922;28;20044;-64
2021/05/29 05:41:31;;;;;;;3.92;3.13;;;13.00;68.00;;;;;;5023972;28;20041;-65
2021/05/29 05:43:57;;;;;;;3.60;3.30;;;13.00;68.00;;;;;;5018033;28;20555;-65
2021/05/29 05:46:25;;;;;;;3.47;3.17;;;13.10;68.00;;;;;;5014816;28;20515;-65
2021/05/29 05:48:53;;;;;;;4.45;3.00;;;13.10;68.10;;;;;;5017079;28;20052;-65
2021/05/29 05:51:24;;;;;;;3.28;3.00;;;13.10;68.00;;;;;;5022868;28;20084;-65
2021/05/29 05:53:52;;;;;;;3.25;2.95;;;13.10;68.00;;;;;;5018003;28;20047;-65
2021/05/29 05:56:25;;;;;;;3.35;3.05;;;13.20;67.90;;;;;;5016449;28;20030;-65
2021/05/29 05:58:57;;;;;;;3.30;3.00;;;13.20;67.80;;;;;;5015065;28;20030;-64
2021/05/29 06:01:24;;;;;;;3.00;2.78;;;13.30;67.80;;;;;;5012591;28;20130;-64
2021/05/29 06:03:52;;;;;;;2.92;2.72;;;13.30;67.70;;;;;;5012574;28;20635;-65
2021/05/29 06:06:25;;;;;;;3.58;2.63;;;13.40;67.60;;;;;;5021966;28;20042;-66
2021/05/29 06:08:57;;;;;;;3.35;3.05;;;13.40;67.50;;;;;;5020055;28;20022;-65
2021/05/29 06:11:26;;;;;;;3.38;2.85;;;13.40;67.30;;;;;;5019033;28;20033;-64
2021/05/29 06:19:17;;;;;;;3.08;2.63;;;13.60;66.90;;;;;;5020470;28;20115;-65
2021/05/29 06:21:47;;;;;;;2.58;2.38;;;13.60;67.00;;;;;;5020839;28;20129;-65
2021/05/29 06:24:21;;;;;;;3.78;2.80;;;13.70;67.10;;;;;;5020935;28;20034;-65
2021/05/29 06:26:48;;;;;;;3.88;2.53;;;13.70;66.80;;;;;;5019044;28;20125;-65
2021/05/29 06:29:16;;;;;;;2.88;2.63;;;13.80;66.70;;;;;;5020661;28;20729;-65
2021/05/29 06:31:42;;;;;;;2.78;2.58;;;13.80;66.60;;;;;;5019502;28;20053;-65
2021/05/29 06:34:08;;;;;;;3.13;2.83;;;13.90;66.60;;;;;;5020818;28;20042;-65
2021/05/29 06:36:34;;;;;;;3.03;2.72;;;13.90;66.40;;;;;;5018557;28;20573;-65
2021/05/29 06:39:05;;;;;;;4.13;2.97;;;13.90;66.40;;;;;;5020546;28;20113;-65
2021/05/29 06:41:40;;;;;;;2.78;2.58;;;14.00;66.40;;;;;;5018393;28;20821;-64
2021/05/29 06:44:06;;;;;;;2.90;2.70;;;14.10;66.20;;;;;;5016509;28;20125;-65
2021/05/29 06:46:32;;;;;;;2.92;2.72;;;14.10;65.80;;;;;;5018072;28;20030;-65
2021/05/29 06:49:00;;;;;;;2.95;2.65;;;14.20;66.50;;;;;;5020623;28;20029;-66
2021/05/29 06:51:40;;;;;;;2.65;2.45;;;14.20;65.70;;;;;;5020105;28;20030;-66
2021/05/29 06:54:14;;;;;;;4.50;2.60;;;14.30;65.50;;;;;;5019119;28;20029;-65
2021/05/29 06:59:26;;;;;;;3.35;2.53;;;14.50;65.10;;;;;;5018592;28;20037;-66
2021/05/29 07:01:55;;;;;;;2.63;2.42;;;14.60;64.70;;;;;;5019796;28;20042;-65
2021/05/29 07:04:23;;;;;;;2.90;2.50;;;14.70;64.70;;;;;;5017558;28;20465;-64
2021/05/29 07:06:50;;;;;;;2.38;2.17;;;14.80;64.20;;;;;;5021653;28;20061;-64
2021/05/29 07:09:20;;;;;;;2.40;2.20;;;14.90;64.10;;;;;;5020367;28;20535;-64
2021/05/29 07:11:46;;;;;;;2.40;2.20;;;15.00;63.80;;;;;;5019313;28;20049;-65
2021/05/29 07:14:12;;;;;;;2.33;2.03;;;15.10;63.40;;;;;;5020456;28;20041;-64
2021/05/29 07:16:38;;;;;;;3.85;2.30;;;15.20;63.20;;;;;;5017232;28;20038;-64
2021/05/29 07:19:04;;;;;;;2.30;2.13;;;15.30;62.70;;;;;;5020622;28;20022;-65
2021/05/29 07:21:38;;;;;;;3.28;2.00;;;15.30;62.20;;;;;;5018619;28;20033;-64
2021/05/29 07:24:04;;;;;;;2.00;1.80;;;15.40;61.80;;;;;;5014604;28;20447;-64
2021/05/29 07:26:32;;;;;;;1.98;1.88;;;15.50;61.30;;;;;;5018181;28;20045;-65
2021/05/29 07:29:00;;;;;;;2.42;2.22;;;15.50;60.90;;;;;;5017587;28;20030;-64
2021/05/29 07:31:28;;;;;;;2.13;1.85;;;15.60;60.90;;;;;;5014171;28;20519;-64
2021/05/29 07:33:55;;;;;;;2.65;1.98;;;15.70;60.80;;;;;;5017866;28;20037;-65
2021/05/29 07:36:26;;;;;;;2.20;2.00;;;15.70;61.30;;;;;;5011474;28;20417;-65
2021/05/29 07:38:52;;;;;;;2.88;2.30;;;15.80;60.00;;;;;;5016288;28;20044;-65
2021/05/29 07:41:20;;;;;;;1.85;1.75;;;15.90;59.80;;;;;;5034367;28;20424;-65
2021/05/29 07:43:46;;;;;;;2.08;1.88;;;15.90;59.10;;;;;;5017226;28;20104;-65
2021/05/29 07:46:12;;;;;;;2.40;2.00;;;16.00;59.30;;;;;;5019169;28;20060;-65
2021/05/29 07:48:38;;;;;;;3.45;2.10;;;16.10;59.00;;;;;;5018454;28;20584;-65
2021/05/29 07:51:09;;;;;;;3.33;1.90;;;16.10;58.70;;;;;;5016804;28;20053;-65
2021/05/29 07:53:40;;;;;;;3.53;2.17;;;16.20;58.50;;;;;;5019763;28;20021;-65
2021/05/29 07:56:08;;;;;;;3.08;2.15;;;16.20;58.30;;;;;;5019456;28;20045;-66
2021/05/29 07:58:37;;;;;;;4.30;1.75;;;16.30;58.10;;;;;;5019977;28;20026;-65
2021/05/29 08:01:03;;;;;;;2.78;1.58;;;16.30;57.90;;;;;;5016601;28;20037;-65
2021/05/29 08:03:29;;;;;;;3.90;2.10;;;16.40;57.80;;;;;;5020055;28;20175;-65
2021/05/29 08:05:58;;;;;;;1.92;1.70;;;16.50;57.40;;;;;;5016570;28;20116;-65
2021/05/29 08:08:25;;;;;;;1.88;1.67;;;16.50;57.20;;;;;;5020201;28;20029;-65
2021/05/29 08:10:57;;;;;;;4.90;1.83;;;16.60;57.20;;;;;;5018227;28;20120;-65
2021/05/29 08:13:23;;;;;;;6.32;1.67;;;16.70;57.00;;;;;;5017197;28;20435;-65
2021/05/29 08:15:52;;;;;;;4.88;1.55;;;16.70;57.00;;;;;;5017059;28;20045;-65
2021/05/29 08:18:18;;;;;;;10.05;1.63;;;16.90;56.70;;;;;;5017746;28;20021;-65
2021/05/29 08:20:46;;;;;;;5.93;1.60;;;16.90;56.60;;;;;;5016692;28;20034;-65
2021/05/29 08:23:13;;;;;;;3.15;1.90;;;17.00;56.20;;;;;;5018177;28;20519;-65
2021/05/29 08:25:39;;;;;;;15.60;2.30;;;17.10;55.90;;;;;;5016741;28;20041;-65
2021/05/29 08:28:08;;;;;;;2.35;1.30;;;17.20;55.80;;;;;;5019873;28;20037;-65
2021/05/29 08:30:37;;;;;;;3.60;1.48;;;17.30;56.00;;;;;;5016188;28;20096;-65
2021/05/29 08:33:07;;;;;;;2.35;1.55;;;17.40;55.00;;;;;;5014502;28;20115;-65
2021/05/29 08:35:33;;;;;;;2.17;1.33;;;17.50;54.60;;;;;;5015326;28;20042;-65
2021/05/29 08:38:03;;;;;;;7.80;1.55;;;17.60;54.10;;;;;;5019074;28;20647;-66
2021/05/29 08:40:34;;;;;;;3.67;1.42;;;17.70;54.00;;;;;;5018676;28;20029;-65
2021/05/29 08:43:04;;;;;;;1.70;1.60;;;17.80;53.60;;;;;;5014049;28;20025;-65
2021/05/29 08:45:32;;;;;;;1.33;1.20;;;17.80;52.50;;;;;;5018144;28;20056;-65
2021/05/29 08:48:03;;;;;;;3.47;1.45;;;17.90;52.50;;;;;;5014609;28;20236;-65
2021/05/29 08:50:28;;;;;;;2.15;1.35;;;17.90;52.80;;;;;;5013890;28;21621;-65
2021/05/29 08:52:56;;;;;;;1.83;1.63;;;18.00;52.80;;;;;;5014745;28;20446;-65
2021/05/29 08:55:23;;;;;;;1.30;1.20;;;18.10;52.70;;;;;;5030758;28;20030;-65
2021/05/29 08:57:49;;;;;;;1.75;1.40;;;18.10;52.10;;;;;;5018488;28;20522;-65
2021/05/29 09:00:26;;;;;;;1.90;1.35;;;18.20;52.40;;;;;;5014621;28;20026;-66
2021/05/29 09:03:07;;;;;;;2.33;1.23;;;18.30;51.80;;;;;;5019849;28;20914;-65
2021/05/29 09:05:49;;;;;;;1.85;1.30;;;18.40;50.80;;;;;;5014024;28;20547;-65
2021/05/29 09:08:21;;;;;;;4.32;1.50;;;18.60;50.80;;;;;;5018100;28;20499;-65
2021/05/29 09:10:53;;;;;;;2.47;1.58;;;18.60;51.20;;;;;;5017013;28;20115;-65
2021/05/29 09:13:29;;;;;;;1.83;1.27;;;18.80;50.60;;;;;;5018578;28;20056;-65
2021/05/29 09:16:08;;;;;;;1.23;1.13;;;18.80;50.50;;;;;;5019027;28;20076;-65
2021/05/29 09:18:44;;;;;;;4.68;1.67;;;18.90;50.60;;;;;;5014842;28;20040;-65
2021/05/29 09:21:30;;;;;;;6.03;1.60;;;18.90;50.30;;;;;;5015479;28;20029;-65
2021/05/29 09:24:12;;;;;;;2.17;1.48;;;19.00;49.90;;;;;;5019719;28;20034;-66
2021/05/29 09:26:48;;;;;;;1.60;1.50;;;19.10;49.80;;;;;;5015893;28;20116;-65
2021/05/29 09:29:22;;;;;;;1.55;1.30;;;19.20;49.30;;;;;;5018631;28;20036;-65
2021/05/29 09:32:07;;;;;;;3.20;1.30;;;19.30;50.10;;;;;;5017679;28;20421;-65
2021/05/29 09:34:46;;;;;;;1.52;1.20;;;19.40;49.20;;;;;;5018452;28;20053;-66
2021/05/29 09:37:20;;;;;;;2.10;1.27;;;19.40;48.70;;;;;;5013871;28;20076;-65
2021/05/29 09:39:48;;;;;;;2.90;1.20;;;19.50;49.70;;;;;;5018164;28;20041;-65
2021/05/29 09:42:18;;;;;;;1.20;1.10;;;19.60;48.90;;;;;;5016338;28;20026;-65
2021/05/29 09:44:46;;;;;;;1.55;1.08;;;19.60;47.30;;;;;;5019367;28;20579;-65
2021/05/29 09:47:18;;;;;;;2.15;1.20;;;19.60;47.80;;;;;;5019185;28;20570;-65
2021/05/29 09:49:58;;;;;;;1.48;1.38;;;19.60;47.30;;;;;;5018368;28;20049;-65
2021/05/29 09:52:36;;;;;;;2.17;1.30;;;19.60;47.10;;;;;;5015611;28;20512;-66
2021/05/29 09:55:35;;;;;;;1.75;1.60;;;19.60;47.80;;;;;;5020162;28;20072;-65
2021/05/29 09:58:01;;;;;;;3.42;1.58;;;19.60;45.00;;;;;;5017097;28;20408;-65
2021/05/29 10:00:46;;;;;;;2.10;1.08;;;19.50;47.30;;;;;;5017804;28;20564;-65
2021/05/29 10:03:16;;;;;;;1.30;1.02;;;19.50;45.00;;;;;;5014750;28;20038;-66
2021/05/29 10:05:50;;;;;;;2.50;1.20;;;19.50;47.00;;;;;;5018086;28;20041;-66
2021/05/29 10:08:20;;;;;;;1.45;1.35;;;19.50;47.10;;;;;;5016793;28;20088;-67
2021/05/29 10:10:51;;;;;;;1.92;1.25;;;19.50;45.80;;;;;;5013344;28;20087;-65
2021/05/29 10:13:17;;;;;;;1.20;1.10;;;19.40;45.40;;;;;;5019289;28;20071;-65
2021/05/29 10:15:45;;;;;;;1.30;1.20;;;19.40;46.60;;;;;;5018880;28;20065;-65
2021/05/29 10:18:13;;;;;;;1.65;1.20;;;19.30;47.30;;;;;;5016390;28;20040;-65
2021/05/29 10:20:39;;;;;;;3.05;1.33;;;19.40;47.30;;;;;;5031253;28;20155;-66
2021/05/29 10:23:06;;;;;;;1.15;1.05;;;19.50;47.40;;;;;;5024814;28;20481;-66
2021/05/29 10:25:37;;;;;;;1.58;0.82;;;19.50;47.10;;;;;;5016622;28;20037;-65
2021/05/29 10:28:06;;;;;;;1.25;0.95;;;19.60;47.80;;;;;;5018751;28;20049;-66
2021/05/29 10:30:33;;;;;;;2.88;1.10;;;19.70;47.50;;;;;;5015963;28;20065;-66
2021/05/29 10:33:39;;;;;;;1.17;0.90;;;19.70;46.80;;;;;;5021031;28;20401;-65
2021/05/29 10:36:08;;;;;;;1.02;0.95;;;19.80;43.80;;;;;;5015698;28;20034;-65
2021/05/29 10:38:49;;;;;;;0.77;0.77;;;19.90;45.10;;;;;;5015616;28;20038;-65
2021/05/29 10:41:15;;;;;;;1.10;0.70;;;19.90;44.80;;;;;;5016059;28;20045;-65
2021/05/29 10:43:42;;;;;;;1.92;0.80;;;19.90;45.10;;;;;;5016763;28;20026;-66
2021/05/29 10:46:15;;;;;;;0.90;0.63;;;19.90;44.70;;;;;;5017690;28;20033;-66
2021/05/29 10:48:48;;;;;;;1.52;0.60;;;20.00;44.40;;;;;;5013476;28;20037;-66
2021/05/29 10:51:18;;;;;;;0.82;0.75;;;20.00;44.20;;;;;;5015832;28;20061;-66
2021/05/29 10:53:47;;;;;;;0.95;0.68;;;20.10;44.30;;;;;;5017748;28;20029;-66
2021/05/29 10:56:17;;;;;;;1.20;1.00;;;20.20;44.40;;;;;;5018175;28;20706;-65
2021/05/29 10:59:06;;;;;;;2.08;0.90;;;20.30;43.00;;;;;;5020686;28;20041;-66
2021/05/29 11:01:39;;;;;;;1.15;0.80;;;20.30;43.60;;;;;;5014339;28;20432;-66
2021/05/29 11:04:13;;;;;;;1.70;0.95;;;20.40;43.30;;;;;;5014944;28;20104;-66
2021/05/29 11:06:49;;;;;;;7.65;1.00;;;20.40;44.10;;;;;;5014814;28;20468;-66
2021/05/29 11:09:37;;;;;;;7.78;1.00;;;20.50;44.20;;;;;;5016479;28;20030;-66
2021/05/29 11:12:08;;;;;;;0.88;0.80;;;20.60;43.70;;;;;;5010943;28;20504;-66
2021/05/29 11:14:56;;;;;;;1.08;0.98;;;20.60;43.80;;;;;;5013105;28;20046;-65
2021/05/29 11:17:28;;;;;;;1.60;1.00;;;20.70;41.40;;;;;;5019348;28;20025;-65
2021/05/29 11:20:20;;;;;;;6.97;1.70;;;20.70;43.20;;;;;;5015902;28;20038;-65
2021/05/29 11:22:49;;;;;;;2.40;1.10;;;20.70;42.50;;;;;;5016253;28;20088;-66
2021/05/29 11:25:18;;;;;;;2.05;0.95;;;20.70;43.30;;;;;;5016204;28;20029;-66
2021/05/29 11:27:50;;;;;;;1.35;0.80;;;20.70;43.00;;;;;;5018152;28;20053;-66
2021/05/29 11:30:23;;;;;;;5.18;0.90;;;20.80;43.20;;;;;;5018526;28;20035;-66
2021/05/29 11:33:01;;;;;;;1.05;0.80;;;20.80;43.10;;;;;;5019500;28;20056;-66
2021/05/29 11:35:30;;;;;;;1.52;0.90;;;20.90;42.80;;;;;;5022962;28;20033;-65
2021/05/29 11:38:17;;;;;;;3.22;1.00;;;20.90;42.40;;;;;;5019879;28;20048;-65
2021/05/29 11:41:08;;;;;;;0.93;0.90;;;20.90;40.80;;;;;;5019863;28;20520;-66
2021/05/29 11:43:49;;;;;;;1.60;0.70;;;20.90;42.10;;;;;;5027319;28;20029;-66
2021/05/29 11:46:21;;;;;;;3.95;0.70;;;20.90;42.30;;;;;;5021965;28;20065;-65
2021/05/29 11:49:17;;;;;;;2.92;0.95;;;20.90;42.50;;;;;;5019366;28;20021;-65
2021/05/29 11:51:45;;;;;;;;;;;21.00;42.30;;;;;;5020016;28;20095;-66
2021/05/29 11:54:16;;;;;;;2.65;0.70;;;21.10;43.80;;;;;;5020053;28;19996;-66
2021/05/29 11:56:48;;;;;;;1.83;0.70;;;21.10;43.00;;;;;;5017617;28;20034;-65
2021/05/29 11:59:15;;;;;;;1.17;0.82;;;21.10;41.00;;;;;;5018676;28;20532;-65
2021/05/29 12:01:50;;;;;;;0.95;0.75;;;21.00;41.90;;;;;;5017679;28;20033;-65
2021/05/29 12:04:21;;;;;;;0.60;0.60;;;21.00;41.30;;;;;;5015795;28;20030;-65
2021/05/29 12:06:51;;;;;;;0.88;0.77;;;20.90;42.70;;;;;;5023799;28;20120;-65
2021/05/29 12:09:24;;;;;;;1.80;0.70;;;21.00;42.40;;;;;;5018477;28;20516;-65
2021/05/29 12:12:04;;;;;;;2.38;0.88;;;21.00;42.70;;;;;;5016096;28;20042;-65
2021/05/29 12:14:41;;;;;;;1.02;0.65;;;21.10;42.10;;;;;;5019949;28;20030;-65
2021/05/29 12:17:08;;;;;;;1.20;0.55;;;21.10;41.30;;;;;;5020716;28;20589;-65
2021/05/29 12:19:38;;;;;;;20.10;1.98;;;21.10;42.10;;;;;;5015366;28;20039;-65
2021/05/29 12:22:05;;;;;;;9.65;1.40;;;21.10;41.90;;;;;;5017334;28;20041;-65
2021/05/29 12:24:46;;;;;;;1.05;0.60;;;21.10;42.00;;;;;;5020160;28;20072;-66
2021/05/29 12:27:26;;;;;;;0.70;0.70;;;21.10;41.20;;;;;;5019741;28;20076;-65
2021/05/29 12:30:02;;;;;;;1.20;0.63;;;21.10;41.20;;;;;;5020153;28;20034;-65
2021/05/29 12:32:40;;;;;;;1.10;0.82;;;21.10;41.80;;;;;;5018703;28;20116;-65
2021/05/29 12:35:08;;;;;;;1.20;0.88;;;21.10;40.10;;;;;;5014386;28;20037;-65
2021/05/29 12:37:36;;;;;;;0.93;0.85;;;21.00;41.10;;;;;;5017941;28;20038;-65
2021/05/29 12:40:11;;;;;;;0.73;0.70;;;20.90;40.60;;;;;;5017919;28;20512;-66
2021/05/29 12:42:43;;;;;;;0.80;0.70;;;20.80;40.80;;;;;;5016359;28;20049;-66
2021/05/29 12:45:21;;;;;;;1.27;0.82;;;20.80;41.00;;;;;;5016195;28;20063;-65
2021/05/29 12:48:22;;;;;;;1.48;0.85;;;20.70;41.30;;;;;;5016787;28;20045;-65
2021/05/29 12:53:35;;;;;;;0.90;0.77;;;20.80;40.80;;;;;;5016932;28;20026;-65
2021/05/29 12:56:16;;;;;;;0.50;0.50;;;20.80;41.30;;;;;;5017581;28;20041;-65
2021/05/29 12:59:00;;;;;;;0.68;0.68;;;20.80;41.40;;;;;;5014144;28;20041;-65
2021/05/29 13:09:52;;;;;;;0.90;0.85;;;20.80;41.60;;;;;;5014174;28;20087;-65
2021/05/29 13:12:21;;;;;;;0.80;0.80;;;20.80;41.60;;;;;;5014097;28;20057;-65
2021/05/29 13:14:49;;;;;;;0.70;0.70;;;20.80;39.80;;;;;;5018058;28;20107;-65
2021/05/29 13:17:30;;;;;;;0.70;0.60;;;20.70;40.60;;;;;;5016165;28;20038;-66
2021/05/29 13:20:05;;;;;;;0.88;0.77;;;20.60;41.00;;;;;;5017221;28;20155;-65
2021/05/29 13:22:34;;;;;;;;;;;20.60;41.60;;;;;;5016055;28;20060;-65
2021/05/29 13:25:21;;;;;;;0.70;0.70;;;20.60;42.50;;;;;;5011063;28;19924;-65